sensor_id;sensor_type;location;lat;lon;timestamp;P1;durP1;ratioP1;P2;durP2;ratioP2
27566;SDS011;15006;48.584;9.186;2023-07-29T00:02:10;1.42;;;1.05;;
27566;SDS011;15006;48.584;9.186;2023-07-29T00:04:35;1.35;;;1.33;;
27566;SDS011;15006;48.584;9.186;2023-07-29T00:07:01;7.35;;;2.00;;
27566;SDS011;15006;48.584;9.186;2023-07-29T00:09:28;1.70;;;1.60;;
27566;SDS011;15006;48.584;9.186;2023-07-29T00:11:54;1.25;;;1.25;;
27566;SDS011;15006;48.584;9.186;2023-07-29T00:14:20;1.50;;;1.40;;
27566;SDS011;15006;48.584;9.186;2023-07-29T00:16:46;1.42;;;1.30;;
27566;SDS011;15006;48.584;9.186;2023-07-29T00:19:12;2.63;;;1.42;;
27566;SDS011;15006;48.584;9.186;2023-07-29T00:21:38;1.60;;;1.50;;
27566;SDS011;15006;48.584;9.186;2023-07-29T00:24:06;2.00;;;1.10;;
27566;SDS011;15006;48.584;9.186;2023-07-29T00:26:32;1.40;;;1.40;;
27566;SDS011;15006;48.584;9.186;2023-07-29T00:28:59;3.55;;;1.40;;
27566;SDS011;15006;48.584;9.186;2023-07-29T00:31:25;1.48;;;1.33;;
27566;SDS011;15006;48.584;9.186;2023-07-29T00:33:51;1.77;;;1.38;;
27566;SDS011;15006;48.584;9.186;2023-07-29T00:36:18;1.27;;;1.23;;
27566;SDS011;15006;48.584;9.186;2023-07-29T00:38:44;2.20;;;1.20;;
27566;SDS011;15006;48.584;9.186;2023-07-29T00:41:10;5.00;;;1.80;;
27566;SDS011;15006;48.584;9.186;2023-07-29T00:43:38;1.77;;;1.17;;
27566;SDS011;15006;48.584;9.186;2023-07-29T00:46:04;2.15;;;1.48;;
27566;SDS011;15006;48.584;9.186;2023-07-29T00:48:32;1.42;;;1.33;;
27566;SDS011;15006;48.584;9.186;2023-07-29T00:50:58;1.40;;;1.30;;
27566;SDS011;15006;48.584;9.186;2023-07-29T00:53:24;2.05;;;1.40;;
27566;SDS011;15006;48.584;9.186;2023-07-29T00:55:50;3.67;;;1.40;;
27566;SDS011;15006;48.584;9.186;2023-07-29T00:58:16;2.10;;;1.27;;
27566;SDS011;15006;48.584;9.186;2023-07-29T01:00:42;1.30;;;1.17;;
27566;SDS011;15006;48.584;9.186;2023-07-29T01:03:08;1.17;;;1.17;;
27566;SDS011;15006;48.584;9.186;2023-07-29T01:05:36;1.00;;;1.00;;
27566;SDS011;15006;48.584;9.186;2023-07-29T01:08:20;1.15;;;0.95;;
27566;SDS011;15006;48.584;9.186;2023-07-29T01:13:41;3.03;;;1.40;;
27566;SDS011;15006;48.584;9.186;2023-07-29T01:16:21;1.15;;;1.05;;
27566;SDS011;15006;48.584;9.186;2023-07-29T01:18:56;5.65;;;0.90;;
27566;SDS011;15006;48.584;9.186;2023-07-29T01:21:32;1.80;;;1.08;;
27566;SDS011;15006;48.584;9.186;2023-07-29T01:24:00;2.97;;;1.20;;
27566;SDS011;15006;48.584;9.186;2023-07-29T01:26:26;1.50;;;1.10;;
27566;SDS011;15006;48.584;9.186;2023-07-29T01:28:55;2.03;;;0.98;;
27566;SDS011;15006;48.584;9.186;2023-07-29T01:31:27;2.47;;;1.15;;
27566;SDS011;15006;48.584;9.186;2023-07-29T01:34:09;0.98;;;0.95;;
27566;SDS011;15006;48.584;9.186;2023-07-29T01:36:55;2.22;;;0.70;;
27566;SDS011;15006;48.584;9.186;2023-07-29T01:39:24;1.10;;;1.10;;
27566;SDS011;15006;48.584;9.186;2023-07-29T01:41:54;6.70;;;1.17;;
27566;SDS011;15006;48.584;9.186;2023-07-29T01:44:20;2.88;;;0.95;;
27566;SDS011;15006;48.584;9.186;2023-07-29T01:46:47;1.08;;;1.00;;
27566;SDS011;15006;48.584;9.186;2023-07-29T01:49:13;1.48;;;1.38;;
27566;SDS011;15006;48.584;9.186;2023-07-29T01:51:39;2.00;;;1.60;;
27566;SDS011;15006;48.584;9.186;2023-07-29T01:54:05;1.77;;;1.30;;
27566;SDS011;15006;48.584;9.186;2023-07-29T01:56:31;1.60;;;1.50;;
27566;SDS011;15006;48.584;9.186;2023-07-29T01:58:57;1.50;;;1.15;;
27566;SDS011;15006;48.584;9.186;2023-07-29T02:01:23;1.60;;;1.42;;
27566;SDS011;15006;48.584;9.186;2023-07-29T02:03:49;1.77;;;1.15;;
27566;SDS011;15006;48.584;9.186;2023-07-29T02:06:21;1.27;;;1.17;;
27566;SDS011;15006;48.584;9.186;2023-07-29T02:08:47;3.03;;;1.30;;
27566;SDS011;15006;48.584;9.186;2023-07-29T02:11:13;1.48;;;1.40;;
27566;SDS011;15006;48.584;9.186;2023-07-29T02:13:39;2.55;;;1.20;;
27566;SDS011;15006;48.584;9.186;2023-07-29T02:16:05;1.23;;;1.13;;
27566;SDS011;15006;48.584;9.186;2023-07-29T02:18:31;1.30;;;1.20;;
27566;SDS011;15006;48.584;9.186;2023-07-29T02:20:57;1.20;;;1.15;;
27566;SDS011;15006;48.584;9.186;2023-07-29T02:23:23;1.45;;;1.10;;
27566;SDS011;15006;48.584;9.186;2023-07-29T02:25:49;1.15;;;1.05;;
27566;SDS011;15006;48.584;9.186;2023-07-29T02:28:15;1.30;;;1.20;;
27566;SDS011;15006;48.584;9.186;2023-07-29T02:30:41;1.73;;;1.20;;
27566;SDS011;15006;48.584;9.186;2023-07-29T02:33:10;1.73;;;1.20;;
27566;SDS011;15006;48.584;9.186;2023-07-29T02:35:36;2.28;;;1.27;;
27566;SDS011;15006;48.584;9.186;2023-07-29T02:38:02;3.03;;;1.27;;
27566;SDS011;15006;48.584;9.186;2023-07-29T02:40:28;1.40;;;1.30;;
27566;SDS011;15006;48.584;9.186;2023-07-29T02:42:54;2.20;;;1.42;;
27566;SDS011;15006;48.584;9.186;2023-07-29T02:45:20;2.47;;;1.20;;
27566;SDS011;15006;48.584;9.186;2023-07-29T02:47:46;1.38;;;1.13;;
27566;SDS011;15006;48.584;9.186;2023-07-29T02:50:12;4.80;;;1.10;;
27566;SDS011;15006;48.584;9.186;2023-07-29T02:52:38;1.45;;;1.13;;
27566;SDS011;15006;48.584;9.186;2023-07-29T02:55:05;4.35;;;1.15;;
27566;SDS011;15006;48.584;9.186;2023-07-29T02:57:31;2.90;;;1.20;;
27566;SDS011;15006;48.584;9.186;2023-07-29T02:59:57;1.52;;;1.27;;
27566;SDS011;15006;48.584;9.186;2023-07-29T03:02:23;1.05;;;1.05;;
27566;SDS011;15006;48.584;9.186;2023-07-29T03:04:49;3.22;;;1.30;;
27566;SDS011;15006;48.584;9.186;2023-07-29T03:07:15;1.27;;;1.17;;
27566;SDS011;15006;48.584;9.186;2023-07-29T03:09:41;1.35;;;1.00;;
27566;SDS011;15006;48.584;9.186;2023-07-29T03:12:07;3.42;;;1.23;;
27566;SDS011;15006;48.584;9.186;2023-07-29T03:14:33;1.52;;;1.42;;
27566;SDS011;15006;48.584;9.186;2023-07-29T03:17:03;1.48;;;1.30;;
27566;SDS011;15006;48.584;9.186;2023-07-29T03:19:32;1.20;;;1.20;;
27566;SDS011;15006;48.584;9.186;2023-07-29T03:21:58;0.80;;;0.80;;
27566;SDS011;15006;48.584;9.186;2023-07-29T03:24:24;2.85;;;1.27;;
27566;SDS011;15006;48.584;9.186;2023-07-29T03:26:50;1.30;;;1.20;;
27566;SDS011;15006;48.584;9.186;2023-07-29T03:29:16;4.32;;;1.25;;
27566;SDS011;15006;48.584;9.186;2023-07-29T03:31:42;1.05;;;1.02;;
27566;SDS011;15006;48.584;9.186;2023-07-29T03:34:08;1.40;;;1.10;;
27566;SDS011;15006;48.584;9.186;2023-07-29T03:36:36;3.50;;;1.00;;
27566;SDS011;15006;48.584;9.186;2023-07-29T03:39:02;1.38;;;1.27;;
27566;SDS011;15006;48.584;9.186;2023-07-29T03:41:29;1.65;;;1.05;;
27566;SDS011;15006;48.584;9.186;2023-07-29T03:43:55;1.33;;;1.25;;
27566;SDS011;15006;48.584;9.186;2023-07-29T03:46:21;1.05;;;1.05;;
27566;SDS011;15006;48.584;9.186;2023-07-29T03:48:47;1.02;;;1.02;;
27566;SDS011;15006;48.584;9.186;2023-07-29T03:51:13;2.15;;;1.35;;
27566;SDS011;15006;48.584;9.186;2023-07-29T03:53:40;1.50;;;1.20;;
27566;SDS011;15006;48.584;9.186;2023-07-29T03:56:06;1.30;;;1.25;;
27566;SDS011;15006;48.584;9.186;2023-07-29T03:58:33;1.38;;;1.10;;
27566;SDS011;15006;48.584;9.186;2023-07-29T04:00:59;1.70;;;1.23;;
27566;SDS011;15006;48.584;9.186;2023-07-29T04:03:25;2.08;;;1.73;;
27566;SDS011;15006;48.584;9.186;2023-07-29T04:05:51;2.53;;;2.25;;
27566;SDS011;15006;48.584;9.186;2023-07-29T04:08:18;2.38;;;1.95;;
27566;SDS011;15006;48.584;9.186;2023-07-29T04:10:44;1.90;;;1.80;;
27566;SDS011;15006;48.584;9.186;2023-07-29T04:13:10;1.92;;;1.83;;
27566;SDS011;15006;48.584;9.186;2023-07-29T04:15:37;2.10;;;1.70;;
27566;SDS011;15006;48.584;9.186;2023-07-29T04:18:03;2.60;;;1.80;;
27566;SDS011;15006;48.584;9.186;2023-07-29T04:20:29;1.58;;;1.48;;
27566;SDS011;15006;48.584;9.186;2023-07-29T04:22:55;1.75;;;1.65;;
27566;SDS011;15006;48.584;9.186;2023-07-29T04:25:21;1.25;;;1.25;;
27566;SDS011;15006;48.584;9.186;2023-07-29T04:27:47;1.30;;;1.27;;
27566;SDS011;15006;48.584;9.186;2023-07-29T04:30:13;1.85;;;1.30;;
27566;SDS011;15006;48.584;9.186;2023-07-29T04:32:39;1.42;;;1.33;;
27566;SDS011;15006;48.584;9.186;2023-07-29T04:35:07;1.15;;;1.13;;
27566;SDS011;15006;48.584;9.186;2023-07-29T04:37:34;1.33;;;1.23;;
27566;SDS011;15006;48.584;9.186;2023-07-29T04:40:01;1.20;;;1.20;;
27566;SDS011;15006;48.584;9.186;2023-07-29T04:42:27;3.47;;;1.45;;
27566;SDS011;15006;48.584;9.186;2023-07-29T04:44:53;1.33;;;1.33;;
27566;SDS011;15006;48.584;9.186;2023-07-29T04:47:19;1.67;;;1.42;;
27566;SDS011;15006;48.584;9.186;2023-07-29T04:49:45;2.45;;;1.40;;
27566;SDS011;15006;48.584;9.186;2023-07-29T04:52:11;2.15;;;1.55;;
27566;SDS011;15006;48.584;9.186;2023-07-29T04:54:38;2.22;;;1.38;;
27566;SDS011;15006;48.584;9.186;2023-07-29T04:57:04;1.65;;;1.55;;
27566;SDS011;15006;48.584;9.186;2023-07-29T04:59:30;2.35;;;1.60;;
27566;SDS011;15006;48.584;9.186;2023-07-29T05:01:56;2.72;;;1.33;;
27566;SDS011;15006;48.584;9.186;2023-07-29T05:04:22;2.10;;;1.30;;
27566;SDS011;15006;48.584;9.186;2023-07-29T05:06:49;1.20;;;1.20;;
27566;SDS011;15006;48.584;9.186;2023-07-29T05:09:16;3.05;;;1.60;;
27566;SDS011;15006;48.584;9.186;2023-07-29T05:11:45;9.38;;;2.97;;
27566;SDS011;15006;48.584;9.186;2023-07-29T05:14:15;2.67;;;1.80;;
27566;SDS011;15006;48.584;9.186;2023-07-29T05:16:43;7.00;;;2.38;;
27566;SDS011;15006;48.584;9.186;2023-07-29T05:19:09;4.60;;;1.83;;
27566;SDS011;15006;48.584;9.186;2023-07-29T05:21:39;6.22;;;2.00;;
27566;SDS011;15006;48.584;9.186;2023-07-29T05:24:05;2.03;;;1.13;;
27566;SDS011;15006;48.584;9.186;2023-07-29T05:26:32;1.38;;;1.27;;
27566;SDS011;15006;48.584;9.186;2023-07-29T05:28:58;1.60;;;1.50;;
27566;SDS011;15006;48.584;9.186;2023-07-29T05:31:24;2.05;;;1.30;;
27566;SDS011;15006;48.584;9.186;2023-07-29T05:33:50;3.13;;;1.08;;
27566;SDS011;15006;48.584;9.186;2023-07-29T05:36:16;1.92;;;1.25;;
27566;SDS011;15006;48.584;9.186;2023-07-29T05:38:42;2.30;;;1.58;;
27566;SDS011;15006;48.584;9.186;2023-07-29T05:41:08;1.05;;;1.05;;
27566;SDS011;15006;48.584;9.186;2023-07-29T05:43:33;1.40;;;1.30;;
27566;SDS011;15006;48.584;9.186;2023-07-29T05:45:59;1.30;;;1.20;;
27566;SDS011;15006;48.584;9.186;2023-07-29T05:48:26;2.17;;;1.10;;
27566;SDS011;15006;48.584;9.186;2023-07-29T05:50:52;1.20;;;1.00;;
27566;SDS011;15006;48.584;9.186;2023-07-29T05:53:18;2.22;;;1.20;;
27566;SDS011;15006;48.584;9.186;2023-07-29T05:55:44;1.13;;;1.13;;
27566;SDS011;15006;48.584;9.186;2023-07-29T05:58:10;3.28;;;1.13;;
27566;SDS011;15006;48.584;9.186;2023-07-29T06:00:36;1.40;;;1.30;;
27566;SDS011;15006;48.584;9.186;2023-07-29T06:03:02;1.48;;;1.20;;
27566;SDS011;15006;48.584;9.186;2023-07-29T06:05:28;2.33;;;1.23;;
27566;SDS011;15006;48.584;9.186;2023-07-29T06:07:54;1.60;;;1.40;;
27566;SDS011;15006;48.584;9.186;2023-07-29T06:10:20;1.60;;;1.15;;
27566;SDS011;15006;48.584;9.186;2023-07-29T06:12:47;2.17;;;1.33;;
27566;SDS011;15006;48.584;9.186;2023-07-29T06:15:13;1.60;;;1.50;;
27566;SDS011;15006;48.584;9.186;2023-07-29T06:17:39;1.63;;;1.52;;
27566;SDS011;15006;48.584;9.186;2023-07-29T06:20:06;2.83;;;1.58;;
27566;SDS011;15006;48.584;9.186;2023-07-29T06:22:32;1.88;;;1.60;;
27566;SDS011;15006;48.584;9.186;2023-07-29T06:24:58;3.58;;;1.80;;
27566;SDS011;15006;48.584;9.186;2023-07-29T06:27:25;2.58;;;2.38;;
27566;SDS011;15006;48.584;9.186;2023-07-29T06:29:50;3.67;;;2.67;;
27566;SDS011;15006;48.584;9.186;2023-07-29T06:32:16;2.60;;;2.15;;
27566;SDS011;15006;48.584;9.186;2023-07-29T06:34:42;3.25;;;3.05;;
27566;SDS011;15006;48.584;9.186;2023-07-29T06:37:08;3.30;;;3.10;;
27566;SDS011;15006;48.584;9.186;2023-07-29T06:39:34;2.67;;;2.55;;
27566;SDS011;15006;48.584;9.186;2023-07-29T06:42:00;2.40;;;2.20;;
27566;SDS011;15006;48.584;9.186;2023-07-29T06:44:27;2.58;;;2.38;;
27566;SDS011;15006;48.584;9.186;2023-07-29T06:46:53;2.72;;;2.53;;
27566;SDS011;15006;48.584;9.186;2023-07-29T06:49:19;2.53;;;2.33;;
27566;SDS011;15006;48.584;9.186;2023-07-29T06:51:45;1.77;;;1.67;;
27566;SDS011;15006;48.584;9.186;2023-07-29T06:54:11;2.00;;;1.70;;
27566;SDS011;15006;48.584;9.186;2023-07-29T06:56:38;2.60;;;1.70;;
27566;SDS011;15006;48.584;9.186;2023-07-29T06:59:04;2.75;;;1.73;;
27566;SDS011;15006;48.584;9.186;2023-07-29T07:01:30;2.80;;;1.90;;
27566;SDS011;15006;48.584;9.186;2023-07-29T07:03:56;7.60;;;2.50;;
27566;SDS011;15006;48.584;9.186;2023-07-29T07:06:24;10.38;;;2.22;;
27566;SDS011;15006;48.584;9.186;2023-07-29T07:08:51;4.20;;;2.22;;
27566;SDS011;15006;48.584;9.186;2023-07-29T07:11:18;2.67;;;1.90;;
27566;SDS011;15006;48.584;9.186;2023-07-29T07:13:44;2.45;;;1.67;;
27566;SDS011;15006;48.584;9.186;2023-07-29T07:16:11;1.10;;;1.10;;
27566;SDS011;15006;48.584;9.186;2023-07-29T07:18:38;1.10;;;1.10;;
27566;SDS011;15006;48.584;9.186;2023-07-29T07:21:04;3.70;;;1.30;;
27566;SDS011;15006;48.584;9.186;2023-07-29T07:23:30;1.85;;;1.25;;
27566;SDS011;15006;48.584;9.186;2023-07-29T07:25:56;2.85;;;1.00;;
27566;SDS011;15006;48.584;9.186;2023-07-29T07:28:22;1.40;;;1.00;;
27566;SDS011;15006;48.584;9.186;2023-07-29T07:30:48;1.10;;;1.10;;
27566;SDS011;15006;48.584;9.186;2023-07-29T07:33:15;1.50;;;1.40;;
27566;SDS011;15006;48.584;9.186;2023-07-29T07:35:41;1.75;;;1.65;;
27566;SDS011;15006;48.584;9.186;2023-07-29T07:38:08;2.38;;;2.17;;
27566;SDS011;15006;48.584;9.186;2023-07-29T07:40:35;2.70;;;2.42;;
27566;SDS011;15006;48.584;9.186;2023-07-29T07:43:02;2.13;;;2.03;;
27566;SDS011;15006;48.584;9.186;2023-07-29T07:45:28;2.33;;;2.22;;
27566;SDS011;15006;48.584;9.186;2023-07-29T07:47:54;3.20;;;2.42;;
27566;SDS011;15006;48.584;9.186;2023-07-29T07:50:20;2.63;;;2.42;;
27566;SDS011;15006;48.584;9.186;2023-07-29T07:52:47;2.75;;;2.55;;
27566;SDS011;15006;48.584;9.186;2023-07-29T07:55:14;6.25;;;2.47;;
27566;SDS011;15006;48.584;9.186;2023-07-29T07:57:41;2.70;;;2.60;;
27566;SDS011;15006;48.584;9.186;2023-07-29T08:00:07;3.35;;;2.50;;
27566;SDS011;15006;48.584;9.186;2023-07-29T08:02:35;2.47;;;2.30;;
27566;SDS011;15006;48.584;9.186;2023-07-29T08:05:01;2.63;;;2.53;;
27566;SDS011;15006;48.584;9.186;2023-07-29T08:07:29;2.47;;;2.35;;
27566;SDS011;15006;48.584;9.186;2023-07-29T08:09:55;3.05;;;2.85;;
27566;SDS011;15006;48.584;9.186;2023-07-29T08:12:21;2.60;;;2.50;;
27566;SDS011;15006;48.584;9.186;2023-07-29T08:14:47;2.72;;;2.53;;
27566;SDS011;15006;48.584;9.186;2023-07-29T08:17:13;2.42;;;2.28;;
27566;SDS011;15006;48.584;9.186;2023-07-29T08:19:39;2.17;;;2.08;;
27566;SDS011;15006;48.584;9.186;2023-07-29T08:22:06;2.10;;;2.00;;
27566;SDS011;15006;48.584;9.186;2023-07-29T08:24:34;2.33;;;2.17;;
27566;SDS011;15006;48.584;9.186;2023-07-29T08:27:00;2.30;;;2.20;;
27566;SDS011;15006;48.584;9.186;2023-07-29T08:29:26;1.98;;;1.85;;
27566;SDS011;15006;48.584;9.186;2023-07-29T08:31:52;3.67;;;1.98;;
27566;SDS011;15006;48.584;9.186;2023-07-29T08:34:21;2.45;;;2.25;;
27566;SDS011;15006;48.584;9.186;2023-07-29T08:36:46;3.08;;;1.90;;
27566;SDS011;15006;48.584;9.186;2023-07-29T08:39:13;3.10;;;1.98;;
27566;SDS011;15006;48.584;9.186;2023-07-29T08:41:56;2.03;;;1.80;;
27566;SDS011;15006;48.584;9.186;2023-07-29T08:44:35;2.28;;;2.08;;
27566;SDS011;15006;48.584;9.186;2023-07-29T08:47:09;1.75;;;1.65;;
27566;SDS011;15006;48.584;9.186;2023-07-29T08:49:35;3.58;;;2.00;;
27566;SDS011;15006;48.584;9.186;2023-07-29T08:52:02;2.00;;;1.85;;
27566;SDS011;15006;48.584;9.186;2023-07-29T08:54:30;2.03;;;1.92;;
27566;SDS011;15006;48.584;9.186;2023-07-29T08:56:57;2.63;;;2.15;;
27566;SDS011;15006;48.584;9.186;2023-07-29T08:59:24;2.97;;;1.60;;
27566;SDS011;15006;48.584;9.186;2023-07-29T09:01:52;1.77;;;1.67;;
27566;SDS011;15006;48.584;9.186;2023-07-29T09:04:20;1.65;;;1.50;;
27566;SDS011;15006;48.584;9.186;2023-07-29T09:06:47;1.60;;;1.50;;
27566;SDS011;15006;48.584;9.186;2023-07-29T09:09:17;1.60;;;1.50;;
27566;SDS011;15006;48.584;9.186;2023-07-29T09:11:43;2.22;;;1.55;;
27566;SDS011;15006;48.584;9.186;2023-07-29T09:14:09;1.10;;;1.05;;
27566;SDS011;15006;48.584;9.186;2023-07-29T09:16:35;1.75;;;1.33;;
27566;SDS011;15006;48.584;9.186;2023-07-29T09:19:03;2.80;;;1.30;;
27566;SDS011;15006;48.584;9.186;2023-07-29T09:21:30;2.35;;;1.08;;
27566;SDS011;15006;48.584;9.186;2023-07-29T09:23:57;2.85;;;1.50;;
27566;SDS011;15006;48.584;9.186;2023-07-29T09:26:28;1.30;;;1.20;;
27566;SDS011;15006;48.584;9.186;2023-07-29T09:28:55;1.20;;;1.10;;
27566;SDS011;15006;48.584;9.186;2023-07-29T09:31:24;1.10;;;1.10;;
27566;SDS011;15006;48.584;9.186;2023-07-29T09:33:58;1.33;;;1.30;;
27566;SDS011;15006;48.584;9.186;2023-07-29T09:36:31;1.60;;;1.50;;
27566;SDS011;15006;48.584;9.186;2023-07-29T09:38:59;1.30;;;1.20;;
27566;SDS011;15006;48.584;9.186;2023-07-29T09:41:26;1.65;;;1.50;;
27566;SDS011;15006;48.584;9.186;2023-07-29T09:43:57;1.92;;;1.83;;
27566;SDS011;15006;48.584;9.186;2023-07-29T09:46:33;1.80;;;1.70;;
27566;SDS011;15006;48.584;9.186;2023-07-29T09:49:02;1.52;;;1.50;;
27566;SDS011;15006;48.584;9.186;2023-07-29T09:51:38;3.20;;;1.67;;
27566;SDS011;15006;48.584;9.186;2023-07-29T09:54:05;1.80;;;1.70;;
27566;SDS011;15006;48.584;9.186;2023-07-29T09:56:32;1.73;;;1.50;;
27566;SDS011;15006;48.584;9.186;2023-07-29T09:58:58;1.67;;;1.58;;
27566;SDS011;15006;48.584;9.186;2023-07-29T10:01:24;1.73;;;1.63;;
27566;SDS011;15006;48.584;9.186;2023-07-29T10:03:50;1.48;;;1.38;;
27566;SDS011;15006;48.584;9.186;2023-07-29T10:06:17;1.70;;;1.60;;
27566;SDS011;15006;48.584;9.186;2023-07-29T10:08:44;1.50;;;1.40;;
27566;SDS011;15006;48.584;9.186;2023-07-29T10:11:11;4.65;;;1.95;;
27566;SDS011;15006;48.584;9.186;2023-07-29T10:13:38;1.50;;;1.40;;
27566;SDS011;15006;48.584;9.186;2023-07-29T10:16:04;2.08;;;1.88;;
27566;SDS011;15006;48.584;9.186;2023-07-29T10:18:31;1.77;;;1.58;;
27566;SDS011;15006;48.584;9.186;2023-07-29T10:20:59;1.33;;;1.23;;
27566;SDS011;15006;48.584;9.186;2023-07-29T10:23:28;1.80;;;1.58;;
27566;SDS011;15006;48.584;9.186;2023-07-29T10:26:05;1.30;;;1.25;;
27566;SDS011;15006;48.584;9.186;2023-07-29T10:28:36;3.13;;;1.63;;
27566;SDS011;15006;48.584;9.186;2023-07-29T10:31:06;1.48;;;1.10;;
27566;SDS011;15006;48.584;9.186;2023-07-29T10:33:33;1.25;;;1.15;;
27566;SDS011;15006;48.584;9.186;2023-07-29T10:36:00;1.30;;;1.20;;
27566;SDS011;15006;48.584;9.186;2023-07-29T10:38:28;1.40;;;1.30;;
27566;SDS011;15006;48.584;9.186;2023-07-29T10:40:55;1.13;;;1.13;;
27566;SDS011;15006;48.584;9.186;2023-07-29T10:43:25;0.97;;;0.97;;
27566;SDS011;15006;48.584;9.186;2023-07-29T10:46:14;1.30;;;1.20;;
27566;SDS011;15006;48.584;9.186;2023-07-29T10:54:02;1.83;;;1.13;;
27566;SDS011;15006;48.584;9.186;2023-07-29T10:56:37;1.70;;;1.30;;
27566;SDS011;15006;48.584;9.186;2023-07-29T11:01:56;1.33;;;1.30;;
27566;SDS011;15006;48.584;9.186;2023-07-29T11:04:24;1.20;;;1.20;;
27566;SDS011;15006;48.584;9.186;2023-07-29T11:15:29;2.20;;;1.15;;
27566;SDS011;15006;48.584;9.186;2023-07-29T11:18:00;1.30;;;1.30;;
27566;SDS011;15006;48.584;9.186;2023-07-29T11:20:28;1.60;;;1.50;;
27566;SDS011;15006;48.584;9.186;2023-07-29T11:22:57;1.90;;;1.38;;
27566;SDS011;15006;48.584;9.186;2023-07-29T11:25:26;1.25;;;1.15;;
27566;SDS011;15006;48.584;9.186;2023-07-29T11:27:55;1.27;;;1.17;;
27566;SDS011;15006;48.584;9.186;2023-07-29T11:30:24;1.05;;;1.05;;
27566;SDS011;15006;48.584;9.186;2023-07-29T11:32:54;1.42;;;1.33;;
27566;SDS011;15006;48.584;9.186;2023-07-29T11:35:22;1.30;;;1.30;;
27566;SDS011;15006;48.584;9.186;2023-07-29T11:37:48;1.50;;;1.50;;
27566;SDS011;15006;48.584;9.186;2023-07-29T11:40:17;1.40;;;1.30;;
27566;SDS011;15006;48.584;9.186;2023-07-29T11:42:47;2.10;;;1.00;;
27566;SDS011;15006;48.584;9.186;2023-07-29T11:45:17;1.20;;;1.20;;
27566;SDS011;15006;48.584;9.186;2023-07-29T11:47:45;1.52;;;1.42;;
27566;SDS011;15006;48.584;9.186;2023-07-29T11:50:12;1.25;;;1.23;;
27566;SDS011;15006;48.584;9.186;2023-07-29T11:52:40;1.27;;;1.27;;
27566;SDS011;15006;48.584;9.186;2023-07-29T11:55:12;1.40;;;1.30;;
27566;SDS011;15006;48.584;9.186;2023-07-29T11:57:40;1.10;;;1.10;;
27566;SDS011;15006;48.584;9.186;2023-07-29T12:00:08;1.27;;;1.20;;
27566;SDS011;15006;48.584;9.186;2023-07-29T12:02:41;1.90;;;1.50;;
27566;SDS011;15006;48.584;9.186;2023-07-29T12:05:19;1.08;;;0.93;;
27566;SDS011;15006;48.584;9.186;2023-07-29T12:07:48;1.25;;;1.15;;
27566;SDS011;15006;48.584;9.186;2023-07-29T12:10:15;27.42;;;8.18;;
27566;SDS011;15006;48.584;9.186;2023-07-29T12:12:47;5.18;;;2.15;;
27566;SDS011;15006;48.584;9.186;2023-07-29T12:15:28;1.60;;;1.50;;
27566;SDS011;15006;48.584;9.186;2023-07-29T12:17:55;2.03;;;1.52;;
27566;SDS011;15006;48.584;9.186;2023-07-29T12:20:23;14.18;;;12.82;;
27566;SDS011;15006;48.584;9.186;2023-07-29T12:22:56;34.60;;;21.42;;
27566;SDS011;15006;48.584;9.186;2023-07-29T12:25:26;27.50;;;22.02;;
27566;SDS011;15006;48.584;9.186;2023-07-29T12:27:52;3.72;;;3.47;;
27566;SDS011;15006;48.584;9.186;2023-07-29T12:30:22;8.32;;;7.50;;
27566;SDS011;15006;48.584;9.186;2023-07-29T12:32:48;25.45;;;19.70;;
27566;SDS011;15006;48.584;9.186;2023-07-29T12:35:15;97.68;;;61.40;;
27566;SDS011;15006;48.584;9.186;2023-07-29T12:37:41;91.97;;;55.22;;
27566;SDS011;15006;48.584;9.186;2023-07-29T12:40:23;129.30;;;87.18;;
27566;SDS011;15006;48.584;9.186;2023-07-29T12:42:50;55.72;;;38.63;;
27566;SDS011;15006;48.584;9.186;2023-07-29T12:45:17;6.40;;;6.00;;
27566;SDS011;15006;48.584;9.186;2023-07-29T12:47:43;3.10;;;2.90;;
27566;SDS011;15006;48.584;9.186;2023-07-29T12:50:10;66.38;;;48.50;;
27566;SDS011;15006;48.584;9.186;2023-07-29T12:52:36;67.28;;;50.33;;
27566;SDS011;15006;48.584;9.186;2023-07-29T12:55:02;7.38;;;6.80;;
27566;SDS011;15006;48.584;9.186;2023-07-29T12:57:29;10.00;;;6.55;;
27566;SDS011;15006;48.584;9.186;2023-07-29T12:59:55;502.85;;;350.95;;
27566;SDS011;15006;48.584;9.186;2023-07-29T13:02:21;437.50;;;282.70;;
27566;SDS011;15006;48.584;9.186;2023-07-29T13:04:47;254.60;;;157.85;;
27566;SDS011;15006;48.584;9.186;2023-07-29T13:07:13;348.52;;;205.88;;
27566;SDS011;15006;48.584;9.186;2023-07-29T13:09:39;106.78;;;64.57;;
27566;SDS011;15006;48.584;9.186;2023-07-29T13:12:05;272.95;;;149.77;;
27566;SDS011;15006;48.584;9.186;2023-07-29T13:14:31;478.27;;;268.95;;
27566;SDS011;15006;48.584;9.186;2023-07-29T13:17:00;63.53;;;34.28;;
27566;SDS011;15006;48.584;9.186;2023-07-29T13:19:26;8.48;;;7.60;;
27566;SDS011;15006;48.584;9.186;2023-07-29T13:21:56;2.70;;;2.60;;
27566;SDS011;15006;48.584;9.186;2023-07-29T13:24:22;5.45;;;1.70;;
27566;SDS011;15006;48.584;9.186;2023-07-29T13:26:48;15.27;;;9.48;;
27566;SDS011;15006;48.584;9.186;2023-07-29T13:29:14;214.10;;;148.18;;
27566;SDS011;15006;48.584;9.186;2023-07-29T13:31:40;65.53;;;44.20;;
27566;SDS011;15006;48.584;9.186;2023-07-29T13:34:06;7.35;;;6.78;;
27566;SDS011;15006;48.584;9.186;2023-07-29T13:36:32;34.72;;;19.73;;
27566;SDS011;15006;48.584;9.186;2023-07-29T13:38:58;61.78;;;43.65;;
27566;SDS011;15006;48.584;9.186;2023-07-29T13:41:24;20.58;;;16.00;;
27566;SDS011;15006;48.584;9.186;2023-07-29T13:43:50;78.82;;;53.08;;
27566;SDS011;15006;48.584;9.186;2023-07-29T13:46:16;53.15;;;37.38;;
27566;SDS011;15006;48.584;9.186;2023-07-29T13:48:42;127.35;;;81.63;;
27566;SDS011;15006;48.584;9.186;2023-07-29T13:51:08;258.50;;;176.30;;
27566;SDS011;15006;48.584;9.186;2023-07-29T13:53:34;82.32;;;55.00;;
27566;SDS011;15006;48.584;9.186;2023-07-29T13:56:00;301.08;;;200.15;;
27566;SDS011;15006;48.584;9.186;2023-07-29T13:58:26;250.68;;;165.43;;
27566;SDS011;15006;48.584;9.186;2023-07-29T14:00:52;117.30;;;71.78;;
27566;SDS011;15006;48.584;9.186;2023-07-29T14:03:18;131.40;;;73.68;;
27566;SDS011;15006;48.584;9.186;2023-07-29T14:05:44;83.90;;;46.80;;
27566;SDS011;15006;48.584;9.186;2023-07-29T14:08:10;67.50;;;43.72;;
27566;SDS011;15006;48.584;9.186;2023-07-29T14:10:36;58.78;;;39.28;;
27566;SDS011;15006;48.584;9.186;2023-07-29T14:13:02;92.35;;;60.60;;
27566;SDS011;15006;48.584;9.186;2023-07-29T14:15:28;86.32;;;58.03;;
27566;SDS011;15006;48.584;9.186;2023-07-29T14:17:54;70.13;;;45.55;;
27566;SDS011;15006;48.584;9.186;2023-07-29T14:20:20;82.57;;;56.50;;
27566;SDS011;15006;48.584;9.186;2023-07-29T14:22:47;9.18;;;8.25;;
27566;SDS011;15006;48.584;9.186;2023-07-29T14:25:13;2.92;;;2.70;;
27566;SDS011;15006;48.584;9.186;2023-07-29T14:27:39;1.80;;;1.70;;
27566;SDS011;15006;48.584;9.186;2023-07-29T14:30:06;8.40;;;7.70;;
27566;SDS011;15006;48.584;9.186;2023-07-29T14:32:33;31.35;;;20.55;;
27566;SDS011;15006;48.584;9.186;2023-07-29T14:34:59;25.60;;;17.13;;
27566;SDS011;15006;48.584;9.186;2023-07-29T14:37:29;103.90;;;63.42;;
27566;SDS011;15006;48.584;9.186;2023-07-29T14:39:57;70.78;;;42.22;;
27566;SDS011;15006;48.584;9.186;2023-07-29T14:42:23;33.75;;;22.35;;
27566;SDS011;15006;48.584;9.186;2023-07-29T14:44:50;79.07;;;44.58;;
27566;SDS011;15006;48.584;9.186;2023-07-29T14:47:16;29.30;;;19.35;;
27566;SDS011;15006;48.584;9.186;2023-07-29T14:49:43;112.10;;;68.57;;
27566;SDS011;15006;48.584;9.186;2023-07-29T14:52:10;32.33;;;21.35;;
27566;SDS011;15006;48.584;9.186;2023-07-29T14:54:36;75.80;;;49.08;;
27566;SDS011;15006;48.584;9.186;2023-07-29T14:57:02;32.03;;;22.13;;
27566;SDS011;15006;48.584;9.186;2023-07-29T14:59:31;17.30;;;12.25;;
27566;SDS011;15006;48.584;9.186;2023-07-29T15:01:57;35.83;;;22.15;;
27566;SDS011;15006;48.584;9.186;2023-07-29T15:04:26;5.70;;;5.25;;